Time;durP1;ratioP1;P1;durP2;ratioP2;P2;SDS_P1;SDS_P2;PMS_P1;PMS_P2;Temp;Humidity;BMP_temperature;BMP_pressure;BME280_temperature;BME280_humidity;BME280_pressure;Samples;Min_cycle;Max_cycle;Signal;HPM_P1;HPM_P2
2022/11/07 16:07:16;;;;;;;;;;;4.00;99.90;;;;;;5110247;27;20368;-96
2022/11/07 16:09:51;;;;;;;;;;;4.00;99.90;;;;;;5108787;28;19920;-96
2022/11/07 16:12:19;;;;;;;;;;;4.00;99.90;;;;;;5076716;28;19909;-96
2022/11/07 16:14:58;;;;;;;;;;;4.10;99.90;;;;;;5070675;28;19974;-91
2022/11/07 16:17:24;;;;;;;;;;;4.10;99.90;;;;;;5070803;28;20315;-92
2022/11/07 16:19:49;;;;;;;;;;;4.20;99.90;;;;;;5071292;28;19909;-91
2022/11/07 16:22:15;;;;;;;;;;;4.30;99.90;;;;;;5065669;28;19945;-92
2022/11/07 16:24:41;;;;;;;;;;;4.30;99.90;;;;;;5058181;28;19913;-95
2022/11/07 16:27:07;;;;;;;;;;;4.40;99.90;;;;;;5070204;28;20395;-95
2022/11/07 16:29:53;;;;;;;;;;;4.40;99.90;;;;;;5069947;28;19909;-93
2022/11/07 16:32:19;;;;;;;;;;;4.40;99.90;;;;;;5051413;28;19913;-95
2022/11/07 16:34:44;;;;;;;;;;;4.50;99.90;;;;;;5068423;28;19919;-96
2022/11/07 16:37:10;;;;;;;;;;;4.50;99.90;;;;;;5054995;28;20361;-92
2022/11/07 16:39:35;;;;;;;;;;;4.50;99.90;;;;;;5057901;28;19913;-89
2022/11/07 16:42:01;;;;;;;;;;;4.60;99.90;;;;;;5071563;28;19908;-96
2022/11/07 16:44:27;;;;;;;;;;;4.60;99.90;;;;;;5071461;28;19915;-96
2022/11/07 16:46:53;;;;;;;;;;;4.60;99.90;;;;;;5071307;28;19917;-95
2022/11/07 16:49:22;;;;;;;;;;;4.60;99.90;;;;;;5076721;28;19935;-92
2022/11/07 16:51:47;;;;;;;;;;;4.60;99.90;;;;;;5069784;28;20288;-92
2022/11/07 16:54:12;;;;;;;;;;;4.60;99.90;;;;;;5071747;28;19909;-93
2022/11/07 16:56:38;;;;;;;;;;;4.60;99.90;;;;;;5074402;28;19917;-93
2022/11/07 16:59:05;;;;;;;;;;;4.50;99.90;;;;;;5068209;28;20246;-93
2022/11/07 17:01:30;;;;;;;;;;;4.50;99.90;;;;;;5066610;28;19924;-95
2022/11/07 17:03:56;;;;;;;;;;;4.50;99.90;;;;;;5067923;28;19958;-94
2022/11/07 17:06:32;;;;;;;;;;;4.50;99.90;;;;;;5071187;28;19932;-96
2022/11/07 17:08:58;;;;;;;;;;;4.50;99.90;;;;;;5082197;28;19996;-89
2022/11/07 17:11:25;;;;;;;;;;;4.40;99.90;;;;;;5066781;28;20384;-94
2022/11/07 17:13:50;;;;;;;;;;;4.40;99.90;;;;;;5070448;28;19908;-95
2022/11/07 17:16:21;;;;;;;;;;;4.40;99.90;;;;;;5068793;28;20007;-96
2022/11/07 17:18:47;;;;;;;;;;;4.40;99.90;;;;;;5046714;28;19912;-95
2022/11/07 17:21:22;;;;;;;;;;;4.40;99.90;;;;;;5046376;28;19913;-96
2022/11/07 17:23:48;;;;;;;;;;;4.40;99.90;;;;;;5072698;28;20308;-95
2022/11/07 17:26:17;;;;;;;;;;;4.40;99.90;;;;;;5055896;28;19917;-91
2022/11/07 17:28:42;;;;;;;;;;;4.30;99.90;;;;;;5054383;28;20344;-90
2022/11/07 17:31:08;;;;;;;;;;;4.20;99.90;;;;;;5050798;28;19917;-90
2022/11/07 17:33:34;;;;;;;;;;;4.20;99.90;;;;;;5072121;28;20420;-90
2022/11/07 17:36:30;;;;;;;;;;;4.20;99.90;;;;;;5058659;28;19913;-95
2022/11/07 17:38:59;;;;;;;;;;;4.20;99.90;;;;;;5059816;28;19924;-95
2022/11/07 17:41:28;;;;;;;;;;;4.20;99.90;;;;;;5067800;28;19920;-96
2022/11/07 17:43:55;;;;;;;;;;;4.20;99.90;;;;;;5060693;28;19909;-96
2022/11/07 17:46:25;;;;;;;;;;;4.20;99.90;;;;;;5064438;28;20014;-90
2022/11/07 17:49:14;;;;;;;;;;;4.20;99.90;;;;;;5060400;28;19920;-96
2022/11/07 17:51:40;;;;;;;;;;;4.10;99.90;;;;;;5066680;28;19912;-95
2022/11/07 17:54:06;;;;;;;;;;;4.10;99.90;;;;;;5066172;28;19955;-90
2022/11/07 17:56:37;;;;;;;;;;;4.10;99.90;;;;;;5066931;28;19938;-96
2022/11/07 17:59:23;;;;;;;;;;;4.00;99.90;;;;;;5058736;28;19921;-96
2022/11/07 18:01:50;;;;;;;;;;;4.00;99.90;;;;;;5059765;28;19920;-96
2022/11/07 18:04:15;;;;;;;;;;;4.00;99.90;;;;;;5060572;28;19909;-91
2022/11/07 18:06:41;;;;;;;;;;;4.00;99.90;;;;;;5052583;28;20381;-89
2022/11/07 18:09:10;;;;;;;;;;;4.00;99.90;;;;;;5051294;28;19920;-89
2022/11/07 18:11:35;;;;;;;;;;;4.00;99.90;;;;;;5059412;28;19917;-90
2022/11/07 18:14:01;;;;;;;;;;;4.00;99.90;;;;;;5039731;28;19933;-90
2022/11/07 18:16:28;;;;;;;;;;;4.00;99.90;;;;;;5070562;28;19913;-90
2022/11/07 18:18:54;;;;;;;;;;;4.00;99.90;;;;;;5068174;28;20005;-90
2022/11/07 18:21:20;;;;;;;;;;;4.00;99.90;;;;;;5057514;28;19925;-96
2022/11/07 18:23:45;;;;;;;;;;;4.00;99.90;;;;;;5056217;28;19912;-96
2022/11/07 18:26:15;;;;;;;;;;;4.10;99.90;;;;;;5054977;28;19913;-91
2022/11/07 18:28:41;;;;;;;;;;;4.10;99.90;;;;;;5049517;28;19959;-90
2022/11/07 18:31:10;;;;;;;;;;;4.10;99.90;;;;;;5057831;28;19913;-94
2022/11/07 18:33:37;;;;;;;;;;;4.00;99.90;;;;;;5054500;28;19908;-96
2022/11/07 18:36:04;;;;;;;;;;;4.00;99.90;;;;;;5056926;28;20033;-95
2022/11/07 18:38:30;;;;;;;;;;;4.00;99.90;;;;;;5057765;28;19919;-94
2022/11/07 18:40:55;;;;;;;;;;;4.00;99.90;;;;;;5052379;28;20370;-95
2022/11/07 18:43:21;;;;;;;;;;;3.90;99.90;;;;;;5061456;28;19913;-95
2022/11/07 18:45:49;;;;;;;;;;;3.90;99.90;;;;;;5050120;28;20399;-90
2022/11/07 18:48:17;;;;;;;;;;;3.90;99.90;;;;;;5057662;28;19920;-96
2022/11/07 18:50:42;;;;;;;;;;;3.90;99.90;;;;;;5054059;28;19913;-96
2022/11/07 18:53:08;;;;;;;;;;;4.00;99.90;;;;;;5036064;28;19913;-96
2022/11/07 18:55:33;;;;;;;;;;;3.90;99.90;;;;;;5055421;28;20254;-96
2022/11/07 18:58:00;;;;;;;;;;;3.90;99.90;;;;;;5055445;28;19920;-95
2022/11/07 19:00:27;;;;;;;;;;;3.90;99.90;;;;;;5037592;28;19931;-91
2022/11/07 19:02:52;;;;;;;;;;;3.90;99.90;;;;;;5057794;28;19912;-94
2022/11/07 19:05:19;;;;;;;;;;;3.90;99.90;;;;;;5056529;28;19943;-94
2022/11/07 19:08:17;;;;;;;;;;;3.90;99.90;;;;;;5061771;28;20408;-96
2022/11/07 19:10:43;;;;;;;;;;;3.90;99.90;;;;;;5092117;28;19920;-96
2022/11/07 19:13:09;;;;;;;;;;;3.90;99.90;;;;;;5086408;28;19924;-95
2022/11/07 19:15:38;;;;;;;;;;;3.90;99.90;;;;;;5068302;28;20361;-95
2022/11/07 19:18:04;;;;;;;;;;;3.90;99.90;;;;;;5058208;28;19996;-95
2022/11/07 19:20:30;;;;;;;;;;;3.90;99.90;;;;;;5056949;28;20382;-95
2022/11/07 19:22:57;;;;;;;;;;;3.80;99.90;;;;;;5056661;28;19960;-93
2022/11/07 19:25:24;;;;;;;;;;;3.80;99.90;;;;;;5075459;28;19981;-94
2022/11/07 19:27:50;;;;;;;;;;;3.80;99.90;;;;;;5057555;28;19908;-94
